createdAt,value
2023-05-13T00:03:03.998Z,13.80
2023-05-13T00:08:03.990Z,13.00
2023-05-13T00:13:03.815Z,13.60
2023-05-13T00:18:03.769Z,17.00
2023-05-13T00:23:03.680Z,12.90
2023-05-13T00:28:03.602Z,14.00
2023-05-13T00:33:03.620Z,14.10
2023-05-13T00:38:03.484Z,13.10
2023-05-13T00:43:03.397Z,14.50
2023-05-13T00:48:03.379Z,12.80
2023-05-13T00:53:03.255Z,13.40
2023-05-13T00:58:03.177Z,14.30
2023-05-13T01:03:03.196Z,14.10
2023-05-13T01:08:03.035Z,15.70
2023-05-13T01:13:02.975Z,14.90
2023-05-13T01:18:02.928Z,14.10
2023-05-13T01:23:02.840Z,14.40
2023-05-13T01:28:02.759Z,14.30
2023-05-13T01:33:02.742Z,13.80
2023-05-13T01:38:02.627Z,13.60
2023-05-13T01:43:02.570Z,13.20
2023-05-13T01:48:02.587Z,13.30
2023-05-13T01:53:02.434Z,14.00
2023-05-13T01:58:02.383Z,13.80
2023-05-13T02:03:02.436Z,14.40
2023-05-13T02:08:02.235Z,12.80
2023-05-13T02:13:02.181Z,13.00
2023-05-13T02:18:02.150Z,15.40
2023-05-13T02:23:02.086Z,14.30
2023-05-13T02:28:01.986Z,11.70
2023-05-13T02:33:02.019Z,12.40
2023-05-13T02:38:01.848Z,11.70
2023-05-13T02:43:01.802Z,13.40
2023-05-13T02:48:01.797Z,13.30
2023-05-13T02:53:01.666Z,12.30
2023-05-13T02:58:01.588Z,11.70
2023-05-13T03:03:01.599Z,13.80
2023-05-13T03:08:01.456Z,11.90
2023-05-13T03:13:01.391Z,11.70
2023-05-13T03:18:01.472Z,11.60
2023-05-13T03:23:01.277Z,14.30
2023-05-13T03:28:01.182Z,11.70
2023-05-13T03:33:01.151Z,10.90
2023-05-13T03:38:01.049Z,11.20
2023-05-13T03:43:01.002Z,10.30
2023-05-13T03:48:00.954Z,10.10
2023-05-13T03:53:00.877Z,10.10
2023-05-13T03:58:00.794Z,11.30
2023-05-13T04:03:00.777Z,12.30
2023-05-13T04:08:00.676Z,9.10
2023-05-13T04:13:00.605Z,9.20
2023-05-13T04:18:00.571Z,9.70
2023-05-13T04:23:00.468Z,8.50
2023-05-13T04:28:00.400Z,8.10
2023-05-13T04:33:00.386Z,10.10
2023-05-13T04:38:00.264Z,7.70
2023-05-13T04:43:00.209Z,6.90
2023-05-13T04:48:00.195Z,7.10
2023-05-13T04:53:00.072Z,6.40
2023-05-13T04:58:00.002Z,6.50
2023-05-13T05:02:59.992Z,5.90
2023-05-13T05:07:59.866Z,6.70
2023-05-13T05:12:59.808Z,5.10
2023-05-13T05:17:59.803Z,5.40
2023-05-13T05:22:59.731Z,5.40
2023-05-13T05:27:59.608Z,8.90
2023-05-13T05:33:00.327Z,4.80
2023-05-13T05:37:59.567Z,5.00
2023-05-13T05:43:00.447Z,5.40
2023-05-13T05:47:59.533Z,5.60
2023-05-13T05:52:59.449Z,6.30
2023-05-13T05:57:59.262Z,4.90
2023-05-13T06:02:59.217Z,4.20
2023-05-13T06:07:59.179Z,4.40
2023-05-13T06:12:59.089Z,4.60
2023-05-13T06:17:59.349Z,5.30
2023-05-13T06:22:58.935Z,5.20
2023-05-13T06:28:00.312Z,4.20
2023-05-13T06:33:02.117Z,5.30
2023-05-13T06:37:59.035Z,4.30
2023-05-13T06:42:58.697Z,3.60
2023-05-13T06:47:58.628Z,4.30
2023-05-13T06:52:58.557Z,3.40
2023-05-13T06:57:58.485Z,5.10
2023-05-13T07:02:58.595Z,4.30
2023-05-13T07:07:58.383Z,4.50
2023-05-13T07:12:58.290Z,4.10
2023-05-13T07:17:58.304Z,4.70
2023-05-13T07:22:58.183Z,4.60
2023-05-13T07:27:58.107Z,3.20
2023-05-13T07:32:58.235Z,4.50
2023-05-13T07:37:58.122Z,4.50
2023-05-13T07:42:57.941Z,2.90
2023-05-13T07:47:57.897Z,3.30
2023-05-13T07:52:57.851Z,3.90
2023-05-13T07:57:57.746Z,2.90
2023-05-13T08:02:57.744Z,3.30
2023-05-13T08:07:57.624Z,3.20
2023-05-13T08:12:57.672Z,3.50
2023-05-13T08:17:57.511Z,5.40
2023-05-13T08:22:57.422Z,4.90
2023-05-13T08:27:57.350Z,3.30
2023-05-13T08:32:57.363Z,3.60
2023-05-13T08:37:57.291Z,3.10
2023-05-13T08:42:57.194Z,8.90
2023-05-13T08:47:57.125Z,3.40
2023-05-13T08:52:57.041Z,4.60
2023-05-13T08:57:56.966Z,4.40
2023-05-13T09:02:56.941Z,3.20
2023-05-13T09:07:56.847Z,5.70
2023-05-13T09:12:56.781Z,4.10
2023-05-13T09:17:56.842Z,4.40
2023-05-13T09:22:56.649Z,4.40
2023-05-13T09:27:56.575Z,4.40
2023-05-13T09:32:56.583Z,5.80
2023-05-13T09:37:56.426Z,4.40
2023-05-13T09:42:56.357Z,5.00
2023-05-13T09:47:56.386Z,5.20
2023-05-13T09:52:56.351Z,4.60
2023-05-13T09:57:56.157Z,4.80
2023-05-13T10:02:56.288Z,3.00
2023-05-13T10:07:56.060Z,3.50
2023-05-13T10:12:56.097Z,4.10
2023-05-13T10:17:55.944Z,4.90
2023-05-13T10:22:55.878Z,3.40
2023-05-13T10:27:55.769Z,5.30
2023-05-13T10:32:55.802Z,4.20
2023-05-13T10:37:55.623Z,4.30
2023-05-13T10:42:55.597Z,5.50
2023-05-13T10:47:55.557Z,7.20
2023-05-13T10:52:55.452Z,8.30
2023-05-13T10:57:55.366Z,4.50
2023-05-13T11:02:55.425Z,4.70
2023-05-13T11:07:55.260Z,6.30
2023-05-13T11:12:55.167Z,6.50
2023-05-13T11:17:55.157Z,7.30
2023-05-13T11:22:55.069Z,5.30
2023-05-13T11:27:54.969Z,6.50
2023-05-13T11:32:54.940Z,6.30
2023-05-13T11:37:56.903Z,5.80
2023-05-13T11:42:54.767Z,5.40
2023-05-13T11:47:55.399Z,3.50
2023-05-13T11:52:54.728Z,5.60
2023-05-13T11:57:54.755Z,5.60
2023-05-13T12:02:54.643Z,4.90
2023-05-13T12:07:54.438Z,4.50
2023-05-13T12:12:54.526Z,3.70
2023-05-13T12:17:54.506Z,3.80
2023-05-13T12:22:54.418Z,4.90
2023-05-13T12:27:54.262Z,4.00
2023-05-13T12:32:54.241Z,3.80
2023-05-13T12:37:54.058Z,4.40
2023-05-13T12:42:54.005Z,6.40
2023-05-13T12:47:53.994Z,4.50
2023-05-13T12:52:53.879Z,3.60
2023-05-13T12:57:53.798Z,4.70
2023-05-13T13:02:53.962Z,4.20
2023-05-13T13:07:53.692Z,5.70
2023-05-13T13:12:53.608Z,3.50
2023-05-13T13:17:53.714Z,3.40
2023-05-13T13:22:53.573Z,4.30
2023-05-13T13:27:53.424Z,6.60
2023-05-13T13:32:53.452Z,4.70
2023-05-13T13:37:53.290Z,4.20
2023-05-13T13:42:53.299Z,4.80
2023-05-13T13:47:53.157Z,6.00
2023-05-13T13:52:53.071Z,3.70
2023-05-13T13:57:53.043Z,4.00
2023-05-13T14:02:53.074Z,3.40
2023-05-13T14:07:52.908Z,4.30
2023-05-13T14:12:52.896Z,4.30
2023-05-13T14:17:52.933Z,5.20
2023-05-13T14:22:52.690Z,4.50
2023-05-13T14:27:52.611Z,5.40
2023-05-13T14:32:52.634Z,7.40
2023-05-13T14:37:52.529Z,4.10
2023-05-13T14:42:52.417Z,4.10
2023-05-13T14:47:52.465Z,6.00
2023-05-13T14:52:52.312Z,9.90
2023-05-13T14:57:52.271Z,8.40
2023-05-13T15:02:52.316Z,5.90
2023-05-13T15:07:52.118Z,5.40
2023-05-13T15:12:52.101Z,5.50
2023-05-13T15:17:51.979Z,4.90
2023-05-13T15:22:51.875Z,4.10
2023-05-13T15:27:51.844Z,4.80
2023-05-13T15:32:51.791Z,4.70
2023-05-13T15:37:51.672Z,4.10
2023-05-13T15:42:51.679Z,4.80
2023-05-13T15:47:51.652Z,4.60
2023-05-13T15:52:51.474Z,4.40
2023-05-13T15:57:51.396Z,5.30
2023-05-13T16:02:51.427Z,4.80
2023-05-13T16:07:51.293Z,3.80
2023-05-13T16:12:51.229Z,4.60
2023-05-13T16:17:51.156Z,4.00
2023-05-13T16:22:51.117Z,4.80
2023-05-13T16:27:51.069Z,3.90
2023-05-13T16:32:50.976Z,3.90
2023-05-13T16:37:50.932Z,4.60
2023-05-13T16:42:50.814Z,5.80
2023-05-13T16:47:50.847Z,4.90
2023-05-13T16:52:50.704Z,4.40
2023-05-13T16:57:50.952Z,4.60
2023-05-13T17:02:50.623Z,4.90
2023-05-13T17:07:50.573Z,8.20
2023-05-13T17:12:50.437Z,6.40
2023-05-13T17:17:51.107Z,5.10
2023-05-13T17:22:50.285Z,4.10
2023-05-13T17:27:50.251Z,6.60
2023-05-13T17:32:50.179Z,5.80
2023-05-13T17:37:50.075Z,7.20
2023-05-13T17:42:52.576Z,5.20
2023-05-13T17:47:50.004Z,4.60
2023-05-13T17:52:49.910Z,4.70
2023-05-13T17:57:49.915Z,6.00
2023-05-13T18:02:49.849Z,6.70
2023-05-13T18:07:49.686Z,7.40
2023-05-13T18:12:49.674Z,6.00
2023-05-13T18:17:49.667Z,5.10
2023-05-13T18:22:49.615Z,5.70
2023-05-13T18:27:49.529Z,5.80
2023-05-13T18:32:49.478Z,5.20
2023-05-13T18:37:49.274Z,6.10
2023-05-13T18:42:49.427Z,5.60
2023-05-13T18:47:49.810Z,6.50
2023-05-13T18:52:49.155Z,4.80
2023-05-13T18:57:49.136Z,5.10
2023-05-13T19:02:49.622Z,7.60
2023-05-13T19:07:49.091Z,7.70
2023-05-13T19:12:48.936Z,6.30
2023-05-13T19:17:48.775Z,6.60
2023-05-13T19:22:48.848Z,6.20
2023-05-13T19:27:48.674Z,16.30
2023-05-13T19:32:48.619Z,11.40
2023-05-13T19:37:48.453Z,7.90
2023-05-13T19:42:48.401Z,7.60
2023-05-13T19:47:48.372Z,7.10
2023-05-13T19:52:48.267Z,6.60
2023-05-13T19:57:48.384Z,7.80
2023-05-13T20:02:48.341Z,8.30
2023-05-13T20:07:48.049Z,8.70
2023-05-13T20:12:47.989Z,9.80
2023-05-13T20:17:48.096Z,9.20
2023-05-13T20:22:47.834Z,8.40
2023-05-13T20:27:47.801Z,7.60
2023-05-13T20:32:47.759Z,7.20
2023-05-13T20:37:47.628Z,8.80
2023-05-13T20:42:47.593Z,12.30
2023-05-13T20:47:47.504Z,10.70
2023-05-13T20:52:47.440Z,9.60
2023-05-13T20:57:47.369Z,10.40
2023-05-13T21:02:47.351Z,8.30
2023-05-13T21:07:47.249Z,9.50
2023-05-13T21:12:47.198Z,9.30
2023-05-13T21:17:47.215Z,9.10
2023-05-13T21:22:47.029Z,11.00
2023-05-13T21:27:46.975Z,14.10
2023-05-13T21:32:46.946Z,11.70
2023-05-13T21:37:47.547Z,11.40
2023-05-13T21:42:46.751Z,9.40
2023-05-13T21:47:46.713Z,10.40
2023-05-13T21:52:46.621Z,9.80
2023-05-13T21:57:46.581Z,10.90
2023-05-13T22:02:46.536Z,13.20
2023-05-13T22:07:46.439Z,10.10
2023-05-13T22:12:46.341Z,10.90
2023-05-13T22:17:47.273Z,10.40
2023-05-13T22:22:46.213Z,10.60
2023-05-13T22:27:46.157Z,11.00
2023-05-13T22:32:46.160Z,10.80
2023-05-13T22:37:46.022Z,11.70
2023-05-13T22:42:45.943Z,11.90
2023-05-13T22:47:45.933Z,12.70
2023-05-13T22:52:45.804Z,11.90
2023-05-13T22:57:45.753Z,11.40
2023-05-13T23:02:45.750Z,13.00
2023-05-13T23:07:45.641Z,13.20
2023-05-13T23:12:45.546Z,12.50
2023-05-13T23:17:45.496Z,11.70
2023-05-13T23:22:45.422Z,12.40
2023-05-13T23:27:45.331Z,15.20
2023-05-13T23:32:45.315Z,12.90
2023-05-13T23:37:45.201Z,14.70
2023-05-13T23:42:45.122Z,14.00
2023-05-13T23:47:45.080Z,13.90
2023-05-13T23:52:44.992Z,14.40
2023-05-13T23:57:44.937Z,15.60
